createdAt,value
2018-10-12T00:02:08.901Z,100221.84
2018-10-12T00:04:39.617Z,100222.32
2018-10-12T00:07:10.571Z,100223.80
2018-10-12T00:09:41.322Z,100222.12
2018-10-12T00:12:12.091Z,100230.00
2018-10-12T00:14:42.992Z,100226.13
2018-10-12T00:17:13.835Z,100224.66
2018-10-12T00:19:44.528Z,100216.02
2018-10-12T00:22:15.379Z,100226.38
2018-10-12T00:24:46.136Z,100216.02
2018-10-12T00:27:17.020Z,100219.92
2018-10-12T00:29:47.703Z,100220.98
2018-10-12T00:32:18.527Z,100223.22
2018-10-12T00:34:49.413Z,100228.94
2018-10-12T00:37:20.028Z,100234.16
2018-10-12T00:39:50.809Z,100232.95
2018-10-12T00:42:21.438Z,100234.63
2018-10-12T00:44:52.234Z,100235.39
2018-10-12T00:47:22.947Z,100233.33
2018-10-12T00:49:53.688Z,100235.62
2018-10-12T00:52:24.401Z,100243.50
2018-10-12T00:54:55.174Z,100231.72
2018-10-12T00:57:25.951Z,100229.77
2018-10-12T00:59:56.646Z,100240.63
2018-10-12T01:02:27.304Z,100236.04
2018-10-12T01:04:57.956Z,100240.87
2018-10-12T01:07:28.694Z,100241.48
2018-10-12T01:09:59.412Z,100237.98
2018-10-12T01:12:34.462Z,100247.83
2018-10-12T01:15:05.581Z,100245.25
2018-10-12T01:17:37.083Z,100241.11
2018-10-12T01:20:08.557Z,100229.84
2018-10-12T01:22:39.368Z,100232.88
2018-10-12T01:25:10.516Z,100234.08
2018-10-12T01:27:41.285Z,100228.50
2018-10-12T01:30:12.099Z,100235.66
2018-10-12T01:32:47.865Z,100243.92
2018-10-12T01:35:18.585Z,100257.30
2018-10-12T01:37:49.369Z,100257.30
2018-10-12T01:40:20.208Z,100253.05
2018-10-12T01:42:50.857Z,100248.08
2018-10-12T01:45:21.572Z,100252.56
2018-10-12T01:47:52.291Z,100243.56
2018-10-12T01:50:23.043Z,100247.12
2018-10-12T01:52:53.770Z,100248.69
2018-10-12T01:55:24.432Z,100251.58
2018-10-12T01:57:55.209Z,100250.03
2018-10-12T02:00:25.920Z,100248.08
2018-10-12T02:02:56.628Z,100244.79
2018-10-12T02:05:27.268Z,100248.93
2018-10-12T02:07:58.004Z,100255.37
2018-10-12T02:10:28.703Z,100251.97
2018-10-12T02:12:59.414Z,100254.88
2018-10-12T02:15:30.198Z,100247.86
2018-10-12T02:18:00.929Z,100249.08
2018-10-12T02:20:31.604Z,100248.09
2018-10-12T02:23:02.287Z,100255.52
2018-10-12T02:25:33.052Z,100256.38
2018-10-12T02:28:03.737Z,100256.60
2018-10-12T02:30:34.438Z,100267.53
2018-10-12T02:33:05.188Z,100273.22
2018-10-12T02:35:35.883Z,100279.80
2018-10-12T02:38:06.704Z,100287.54
2018-10-12T02:40:37.401Z,100284.39
2018-10-12T02:43:08.144Z,100292.05
2018-10-12T02:45:38.902Z,100302.00
2018-10-12T02:48:09.534Z,100297.61
2018-10-12T02:50:40.215Z,100300.80
2018-10-12T02:53:10.856Z,100309.41
2018-10-12T02:55:41.508Z,100306.59
2018-10-12T02:58:12.200Z,100308.17
2018-10-12T03:00:42.911Z,100307.95
2018-10-12T03:03:13.582Z,100318.11
2018-10-12T03:05:44.290Z,100325.05
2018-10-12T03:08:14.972Z,100325.44
2018-10-12T03:10:45.640Z,100330.28
2018-10-12T03:13:16.350Z,100340.34
2018-10-12T03:15:47.009Z,100334.02
2018-10-12T03:18:17.724Z,100334.63
2018-10-12T03:20:48.431Z,100347.98
2018-10-12T03:23:19.078Z,100351.98
2018-10-12T03:25:49.820Z,100355.89
2018-10-12T03:28:29.528Z,100353.83
2018-10-12T03:31:00.931Z,100355.75
2018-10-12T03:33:32.728Z,100362.66
2018-10-12T03:36:03.991Z,100366.07
2018-10-12T03:38:34.981Z,100371.16
2018-10-12T03:41:05.789Z,100365.92
2018-10-12T03:43:36.484Z,100373.30
2018-10-12T03:46:07.235Z,100374.64
2018-10-12T03:48:38.010Z,100365.55
2018-10-12T03:51:08.656Z,100371.37
2018-10-12T03:53:39.347Z,100373.53
2018-10-12T03:56:10.662Z,100374.61
2018-10-12T03:58:41.284Z,100391.48
2018-10-12T04:01:11.992Z,100399.06
2018-10-12T04:03:42.704Z,100392.61
2018-10-12T04:06:13.348Z,100389.56
2018-10-12T04:08:44.036Z,100389.09
2018-10-12T04:11:14.687Z,100394.16
2018-10-12T04:13:45.419Z,100404.58
2018-10-12T04:16:16.048Z,100406.51
2018-10-12T04:18:46.687Z,100407.25
2018-10-12T04:21:17.386Z,100414.52
2018-10-12T04:23:48.201Z,100417.09
2018-10-12T04:26:18.824Z,100421.64
2018-10-12T04:28:49.508Z,100422.92
2018-10-12T04:31:20.191Z,100427.19
2018-10-12T04:33:50.891Z,100434.52
2018-10-12T04:36:21.579Z,100429.86
2018-10-12T04:39:08.977Z,100430.98
2018-10-12T04:41:39.682Z,100437.05
2018-10-12T04:44:10.437Z,100430.25
2018-10-12T04:46:42.548Z,100429.27
2018-10-12T04:49:16.177Z,100423.91
2018-10-12T04:51:56.205Z,100429.47
2018-10-12T04:54:27.553Z,100429.54
2018-10-12T04:56:58.239Z,100435.47
2018-10-12T04:59:28.992Z,100437.27
2018-10-12T05:01:59.755Z,100455.66
2018-10-12T05:04:30.503Z,100465.34
2018-10-12T05:07:01.255Z,100462.67
2018-10-12T05:09:31.987Z,100471.87
2018-10-12T05:12:02.731Z,100478.95
2018-10-12T05:14:33.478Z,100475.64
2018-10-12T05:17:04.520Z,100482.89
2018-10-12T05:19:35.180Z,100481.77
2018-10-12T05:22:05.992Z,100483.19
2018-10-12T05:24:36.527Z,100485.09
2018-10-12T05:27:07.497Z,100492.92
2018-10-12T05:30:09.404Z,100492.30
2018-10-12T05:32:40.073Z,100499.45
2018-10-12T05:35:10.759Z,100512.27
2018-10-12T05:37:41.672Z,100517.68
2018-10-12T05:40:12.377Z,100521.36
2018-10-12T05:42:43.086Z,100526.60
2018-10-12T05:45:13.706Z,100535.92
2018-10-12T05:47:44.391Z,100535.34
2018-10-12T05:50:15.188Z,100544.39
2018-10-12T05:52:45.993Z,100552.66
2018-10-12T05:55:16.998Z,100546.58
2018-10-12T05:57:47.791Z,100550.89
2018-10-12T06:00:18.691Z,100553.44
2018-10-12T06:02:49.460Z,100561.70
2018-10-12T06:05:20.262Z,100560.22
2018-10-12T06:07:51.010Z,100572.28
2018-10-12T06:10:21.868Z,100571.89
2018-10-12T06:12:52.592Z,100577.53
2018-10-12T06:15:23.639Z,100574.91
2018-10-12T06:17:54.362Z,100574.71
2018-10-12T06:20:25.116Z,100572.13
2018-10-12T06:22:56.046Z,100577.72
2018-10-12T06:25:26.761Z,100585.24
2018-10-12T06:27:57.484Z,100594.88
2018-10-12T06:30:28.178Z,100594.68
2018-10-12T06:32:59.002Z,100598.72
2018-10-12T06:35:29.850Z,100604.84
2018-10-12T06:38:00.880Z,100604.08
2018-10-12T06:40:32.383Z,100606.71
2018-10-12T06:43:03.315Z,100610.09
2018-10-12T06:45:33.968Z,100614.26
2018-10-12T06:48:04.744Z,100613.52
2018-10-12T06:50:35.411Z,100618.42
2018-10-12T06:53:06.180Z,100613.63
2018-10-12T06:55:36.868Z,100620.59
2018-10-12T06:58:08.246Z,100626.64
2018-10-12T07:00:38.982Z,100629.78
2018-10-12T07:03:10.292Z,100637.37
2018-10-12T07:05:40.840Z,100627.53
2018-10-12T07:08:11.515Z,100634.57
2018-10-12T07:10:42.253Z,100635.12
2018-10-12T07:13:12.901Z,100638.72
2018-10-12T07:15:43.610Z,100639.02
2018-10-12T07:18:14.307Z,100649.45
2018-10-12T07:20:44.961Z,100654.20
2018-10-12T07:23:15.668Z,100654.05
2018-10-12T07:25:46.296Z,100648.28
2018-10-12T07:28:17.907Z,100656.47
2018-10-12T07:30:48.520Z,100668.44
2018-10-12T07:33:19.182Z,100679.30
2018-10-12T07:35:49.850Z,100686.23
2018-10-12T07:38:20.550Z,100684.66
2018-10-12T07:40:51.243Z,100690.87
2018-10-12T07:43:21.969Z,100691.19
2018-10-12T07:45:52.639Z,100693.61
2018-10-12T07:48:23.346Z,100693.10
2018-10-12T07:50:53.932Z,100695.14
2018-10-12T07:53:24.656Z,100694.01
2018-10-12T07:55:55.273Z,100695.75
2018-10-12T07:58:26.018Z,100703.05
2018-10-12T08:00:56.755Z,100698.66
2018-10-12T08:03:27.452Z,100699.60
2018-10-12T08:05:58.168Z,100698.98
2018-10-12T08:08:28.814Z,100700.39
2018-10-12T08:10:59.555Z,100702.02
2018-10-12T08:13:30.323Z,100695.14
2018-10-12T08:16:01.019Z,100694.31
2018-10-12T08:18:31.735Z,100695.13
2018-10-12T08:21:02.519Z,100704.20
2018-10-12T08:23:33.219Z,100710.69
2018-10-12T08:26:03.990Z,100708.02
2018-10-12T08:28:34.754Z,100705.98
2018-10-12T08:31:05.543Z,100710.70
2018-10-12T08:33:36.460Z,100714.25
2018-10-12T08:36:07.280Z,100719.64
2018-10-12T08:38:37.941Z,100728.01
2018-10-12T08:41:08.668Z,100722.08
2018-10-12T08:43:39.396Z,100729.59
2018-10-12T08:46:10.195Z,100730.18
2018-10-12T08:48:40.924Z,100740.88
2018-10-12T08:51:11.835Z,100739.22
2018-10-12T08:53:42.544Z,100735.46
2018-10-12T08:56:13.372Z,100746.06
2018-10-12T08:58:44.047Z,100751.91
2018-10-12T09:01:14.692Z,100766.08
2018-10-12T09:03:45.427Z,100758.99
2018-10-12T09:06:16.485Z,100758.59
2018-10-12T09:08:47.169Z,100758.13
2018-10-12T09:11:17.954Z,100755.00
2018-10-12T09:13:48.645Z,100775.80
2018-10-12T09:16:19.991Z,100761.03
2018-10-12T09:18:50.585Z,100765.09
2018-10-12T09:21:21.251Z,100766.91
2018-10-12T09:23:51.935Z,100766.32
2018-10-12T09:26:22.626Z,100770.50
2018-10-12T09:28:53.355Z,100763.58
2018-10-12T09:31:23.990Z,100773.67
2018-10-12T09:33:54.696Z,100759.06
2018-10-12T09:36:25.468Z,100759.86
2018-10-12T09:38:56.102Z,100764.11
2018-10-12T09:41:26.859Z,100758.50
2018-10-12T09:43:57.563Z,100764.67
2018-10-12T09:46:28.242Z,100772.21
2018-10-12T09:48:58.915Z,100775.14
2018-10-12T09:51:29.856Z,100778.04
2018-10-12T09:54:00.527Z,100772.94
2018-10-12T09:56:31.148Z,100768.13
2018-10-12T09:59:01.857Z,100767.08
2018-10-12T10:02:36.344Z,100770.94
2018-10-12T10:05:09.986Z,100758.52
2018-10-12T10:07:41.237Z,100751.23
2018-10-12T10:10:11.903Z,100753.64
2018-10-12T10:12:42.597Z,100761.08
2018-10-12T10:15:13.255Z,100751.18
2018-10-12T10:17:43.948Z,100750.50
2018-10-12T10:20:14.670Z,100764.89
2018-10-12T10:22:45.375Z,100751.36
2018-10-12T10:25:16.172Z,100736.19
2018-10-12T10:27:47.053Z,100750.91
2018-10-12T10:30:17.727Z,100745.15
2018-10-12T10:32:49.036Z,100744.75
2018-10-12T10:35:19.122Z,100746.00
2018-10-12T10:37:49.832Z,100748.21
2018-10-12T10:40:20.557Z,100737.63
2018-10-12T10:42:51.220Z,100736.89
2018-10-12T10:45:22.428Z,100732.88
2018-10-12T10:47:53.110Z,100738.02
2018-10-12T10:50:23.859Z,100728.17
2018-10-12T10:52:54.466Z,100725.14
2018-10-12T10:55:25.158Z,100716.46
2018-10-12T10:57:55.840Z,100719.33
2018-10-12T11:00:26.537Z,100709.70
2018-10-12T11:02:57.205Z,100719.41
2018-10-12T11:05:27.984Z,100717.08
2018-10-12T11:07:58.706Z,100720.50
2018-10-12T11:10:29.411Z,100721.06
2018-10-12T11:13:00.135Z,100719.34
2018-10-12T11:15:30.759Z,100722.50
2018-10-12T11:18:01.418Z,100717.62
2018-10-12T11:20:32.040Z,100722.72
2018-10-12T11:23:02.744Z,100728.70
2018-10-12T11:25:33.401Z,100722.59
2018-10-12T11:28:04.118Z,100726.10
2018-10-12T11:30:34.827Z,100722.79
2018-10-12T11:33:05.607Z,100720.23
2018-10-12T11:35:36.317Z,100722.49
2018-10-12T11:38:07.080Z,100704.48
2018-10-12T11:40:37.755Z,100706.08
2018-10-12T11:43:35.362Z,100707.91
2018-10-12T11:46:06.234Z,100706.62
2018-10-12T11:48:36.868Z,100703.06
2018-10-12T11:51:07.601Z,100714.92
2018-10-12T11:53:38.390Z,100703.86
2018-10-12T11:56:09.030Z,100696.80
2018-10-12T11:58:39.740Z,100697.19
2018-10-12T12:01:10.450Z,100698.56
2018-10-12T12:03:41.950Z,100697.83
2018-10-12T12:06:12.670Z,100692.38
2018-10-12T12:08:43.362Z,100706.02
2018-10-12T12:11:14.016Z,100701.16
2018-10-12T12:13:44.702Z,100701.17
2018-10-12T12:16:15.344Z,100707.93
2018-10-12T12:18:46.077Z,100701.84
2018-10-12T12:21:16.834Z,100700.22
2018-10-12T12:23:47.538Z,100699.89
2018-10-12T12:26:18.451Z,100698.33
2018-10-12T12:28:49.109Z,100698.40
2018-10-12T12:31:19.878Z,100695.13
2018-10-12T12:33:50.556Z,100693.48
2018-10-12T12:36:21.248Z,100695.36
2018-10-12T12:38:52.007Z,100688.08
2018-10-12T12:41:22.708Z,100697.87
2018-10-12T12:43:53.421Z,100691.64
2018-10-12T12:46:24.093Z,100699.71
2018-10-12T12:48:55.173Z,100689.50
2018-10-12T12:51:25.429Z,100690.30
2018-10-12T12:53:56.172Z,100688.89
2018-10-12T12:56:26.753Z,100690.15
2018-10-12T12:58:57.445Z,100691.02
2018-10-12T13:01:28.162Z,100693.62
2018-10-12T13:03:58.876Z,100692.97
2018-10-12T13:06:29.669Z,100695.18
2018-10-12T13:09:00.386Z,100691.96
2018-10-12T13:11:31.082Z,100688.59
2018-10-12T13:14:01.880Z,100690.09
2018-10-12T13:16:32.572Z,100692.82
2018-10-12T13:19:03.268Z,100685.88
2018-10-12T13:21:33.997Z,100697.07
2018-10-12T13:24:04.727Z,100695.81
2018-10-12T13:26:35.459Z,100691.29
2018-10-12T13:29:06.157Z,100694.64
2018-10-12T13:31:36.869Z,100701.25
2018-10-12T13:34:07.679Z,100696.50
2018-10-12T13:36:38.359Z,100693.19
2018-10-12T13:39:11.708Z,100697.02
2018-10-12T13:41:42.408Z,100703.19
2018-10-12T13:44:13.159Z,100697.31
2018-10-12T13:46:43.875Z,100698.83
2018-10-12T13:49:14.602Z,100700.83
2018-10-12T13:51:45.316Z,100704.56
2018-10-12T13:54:16.095Z,100702.88
2018-10-12T13:56:46.817Z,100699.09
2018-10-12T13:59:17.505Z,100727.11
2018-10-12T14:01:48.215Z,100711.42
2018-10-12T14:04:19.122Z,100705.50
2018-10-12T14:06:49.875Z,100698.88
2018-10-12T14:09:20.548Z,100704.91
2018-10-12T14:11:51.347Z,100694.50
2018-10-12T14:14:22.131Z,100699.04
2018-10-12T14:16:52.817Z,100712.44
2018-10-12T14:19:24.242Z,100701.06
2018-10-12T14:21:54.813Z,100705.97
2018-10-12T14:24:25.708Z,100707.02
2018-10-12T14:26:56.475Z,100695.67
2018-10-12T14:29:27.309Z,100699.45
2018-10-12T14:31:58.068Z,100702.95
2018-10-12T14:34:28.812Z,100693.59
2018-10-12T14:36:59.581Z,100697.86
2018-10-12T14:39:30.311Z,100698.89
2018-10-12T14:42:01.056Z,100702.06
2018-10-12T14:44:31.789Z,100703.86
2018-10-12T14:47:02.582Z,100704.84
2018-10-12T14:49:33.315Z,100704.36
2018-10-12T14:52:04.108Z,100700.67
2018-10-12T14:54:34.852Z,100702.88
2018-10-12T14:57:11.395Z,100698.14
2018-10-12T14:59:42.220Z,100697.61
2018-10-12T15:02:13.067Z,100684.25
2018-10-12T15:04:44.231Z,100693.41
2018-10-12T15:07:15.042Z,100688.63
2018-10-12T15:09:45.969Z,100683.08
2018-10-12T15:12:17.259Z,100681.41
2018-10-12T15:15:04.752Z,100686.83
2018-10-12T15:17:35.476Z,100690.20
2018-10-12T15:20:06.376Z,100693.37
2018-10-12T15:22:37.081Z,100692.37
2018-10-12T15:25:07.978Z,100696.56
2018-10-12T15:27:38.988Z,100703.19
2018-10-12T15:30:10.441Z,100701.64
2018-10-12T15:32:41.339Z,100694.70
2018-10-12T15:35:12.242Z,100696.20
2018-10-12T15:37:43.856Z,100704.09
2018-10-12T15:40:14.640Z,100702.64
2018-10-12T15:42:45.556Z,100701.42
2018-10-12T15:45:16.230Z,100699.70
2018-10-12T15:47:47.028Z,100702.39
2018-10-12T15:50:17.891Z,100697.11
2018-10-12T15:52:48.623Z,100695.34
2018-10-12T15:55:20.361Z,100703.72
2018-10-12T15:57:51.182Z,100705.27
2018-10-12T16:00:21.963Z,100701.77
2018-10-12T16:02:52.733Z,100701.91
2018-10-12T16:05:23.413Z,100697.45
2018-10-12T16:07:54.234Z,100704.77
2018-10-12T16:10:25.232Z,100703.16
2018-10-12T16:12:56.045Z,100706.25
2018-10-12T16:15:26.749Z,100701.97
2018-10-12T16:17:57.490Z,100701.50
2018-10-12T16:20:28.196Z,100702.13
2018-10-12T16:22:58.963Z,100700.98
2018-10-12T16:26:13.605Z,100707.94
2018-10-12T16:28:44.274Z,100711.17
2018-10-12T16:31:15.055Z,100716.23
2018-10-12T16:33:45.760Z,100717.17
2018-10-12T16:36:16.550Z,100719.33
2018-10-12T16:38:47.332Z,100718.91
2018-10-12T16:41:18.084Z,100721.52
2018-10-12T16:43:48.800Z,100722.67
2018-10-12T16:46:19.564Z,100728.01
2018-10-12T16:48:50.322Z,100731.06
2018-10-12T16:51:20.951Z,100725.96
2018-10-12T16:53:51.695Z,100725.55
2018-10-12T16:56:22.371Z,100732.22
2018-10-12T16:58:53.087Z,100729.84
2018-10-12T17:01:23.729Z,100728.63
2018-10-12T17:03:54.397Z,100734.66
2018-10-12T17:06:25.205Z,100732.52
2018-10-12T17:08:56.002Z,100736.55
2018-10-12T17:11:26.708Z,100740.97
2018-10-12T17:13:57.372Z,100735.30
2018-10-12T17:16:28.088Z,100739.06
2018-10-12T17:18:58.784Z,100745.16
2018-10-12T17:21:29.460Z,100738.79
2018-10-12T17:24:00.164Z,100754.78
2018-10-12T17:26:30.871Z,100751.80
2018-10-12T17:29:01.558Z,100754.65
2018-10-12T17:31:32.235Z,100759.54
2018-10-12T17:34:02.936Z,100755.42
2018-10-12T17:36:34.421Z,100753.72
2018-10-12T17:39:09.706Z,100757.83
2018-10-12T17:41:41.505Z,100765.31
2018-10-12T17:44:12.216Z,100767.37
2018-10-12T17:46:42.908Z,100771.83
2018-10-12T17:49:13.636Z,100768.28
2018-10-12T17:51:44.349Z,100766.94
2018-10-12T17:54:15.726Z,100765.37
2018-10-12T17:56:47.566Z,100759.95
2018-10-12T17:59:18.322Z,100768.09
2018-10-12T18:01:49.025Z,100768.50
2018-10-12T18:04:19.781Z,100771.67
2018-10-12T18:06:50.490Z,100775.84
2018-10-12T18:09:21.221Z,100783.08
2018-10-12T18:11:52.076Z,100784.54
2018-10-12T18:14:22.825Z,100782.97
2018-10-12T18:16:53.765Z,100776.69
2018-10-12T18:19:24.416Z,100774.62
2018-10-12T18:21:56.055Z,100773.20
2018-10-12T18:24:28.565Z,100773.58
2018-10-12T18:26:59.344Z,100771.78
2018-10-12T18:29:30.424Z,100770.13
2018-10-12T18:32:01.104Z,100781.73
2018-10-12T18:34:31.848Z,100773.89
2018-10-12T18:37:02.738Z,100769.48
2018-10-12T18:39:33.370Z,100772.72
2018-10-12T18:42:04.143Z,100776.83
2018-10-12T18:44:35.952Z,100777.46
2018-10-12T18:47:06.698Z,100784.95
2018-10-12T18:49:37.348Z,100795.31
2018-10-12T18:52:08.711Z,100794.26
2018-10-12T18:54:39.442Z,100789.12
2018-10-12T18:57:10.988Z,100793.40
2018-10-12T18:59:41.655Z,100799.63
2018-10-12T19:02:14.524Z,100797.34
2018-10-12T19:04:45.298Z,100802.19
2018-10-12T19:07:15.944Z,100796.71
2018-10-12T19:09:47.532Z,100801.37
2018-10-12T19:12:18.328Z,100806.50
2018-10-12T19:14:48.988Z,100801.62
2018-10-12T19:17:19.701Z,100805.90
2018-10-12T19:19:50.386Z,100810.78
2018-10-12T19:22:21.123Z,100809.72
2018-10-12T19:24:51.920Z,100810.59
2018-10-12T19:27:22.574Z,100813.05
2018-10-12T19:29:53.267Z,100815.59
2018-10-12T19:32:23.995Z,100812.19
2018-10-12T19:34:54.658Z,100808.45
2018-10-12T19:37:25.378Z,100813.44
2018-10-12T19:39:56.125Z,100815.31
2018-10-12T19:42:26.827Z,100815.31
2018-10-12T19:44:57.518Z,100828.84
2018-10-12T19:47:28.273Z,100825.58
2018-10-12T19:49:58.920Z,100828.89
2018-10-12T19:52:29.780Z,100827.55
2018-10-12T19:55:00.518Z,100824.15
2018-10-12T19:57:31.272Z,100825.88
2018-10-12T20:00:01.947Z,100828.35
2018-10-12T20:02:32.734Z,100827.64
2018-10-12T20:05:03.434Z,100834.10
2018-10-12T20:07:34.183Z,100843.59
2018-10-12T20:10:05.360Z,100844.59
2018-10-12T20:12:36.138Z,100835.69
2018-10-12T20:15:07.485Z,100848.38
2018-10-12T20:17:38.359Z,100842.61
2018-10-12T20:20:09.105Z,100853.95
2018-10-12T20:22:39.873Z,100844.94
2018-10-12T20:25:10.751Z,100843.50
2018-10-12T20:27:41.608Z,100840.20
2018-10-12T20:30:12.656Z,100842.64
2018-10-12T20:32:43.432Z,100845.22
2018-10-12T20:35:14.297Z,100848.62
2018-10-12T20:37:45.104Z,100848.38
2018-10-12T20:40:15.760Z,100845.49
2018-10-12T20:42:46.603Z,100844.14
2018-10-12T20:45:17.367Z,100847.07
2018-10-12T20:47:48.203Z,100850.72
2018-10-12T20:50:18.993Z,100849.88
2018-10-12T20:52:49.682Z,100855.48
2018-10-12T20:55:20.621Z,100850.61
2018-10-12T20:57:51.602Z,100855.62
2018-10-12T21:00:22.354Z,100853.19
2018-10-12T21:02:53.090Z,100855.38
2018-10-12T21:05:23.735Z,100850.50
2018-10-12T21:07:54.627Z,100849.88
2018-10-12T21:10:25.241Z,100852.94
2018-10-12T21:12:56.022Z,100858.92
2018-10-12T21:15:26.701Z,100848.68
2018-10-12T21:17:57.577Z,100853.66
2018-10-12T21:20:28.285Z,100852.23
2018-10-12T21:22:59.168Z,100856.98
2018-10-12T21:25:29.900Z,100859.52
2018-10-12T21:28:00.798Z,100858.19
2018-10-12T21:30:31.640Z,100856.96
2018-10-12T21:33:02.480Z,100852.72
2018-10-12T21:35:33.292Z,100854.41
2018-10-12T21:38:04.132Z,100856.47
2018-10-12T21:40:34.901Z,100853.31
2018-10-12T21:43:05.599Z,100853.31
2018-10-12T21:45:36.470Z,100849.91
2018-10-12T21:48:07.406Z,100853.08
2018-10-12T21:50:38.338Z,100858.78
2018-10-12T21:53:09.018Z,100852.22
2018-10-12T21:55:39.830Z,100847.95
2018-10-12T21:58:10.564Z,100843.07
2018-10-12T22:00:41.440Z,100852.08
2018-10-12T22:03:26.563Z,100845.75
2018-10-12T22:05:57.490Z,100849.77
2018-10-12T22:08:33.483Z,100844.66
2018-10-12T22:11:04.937Z,100848.55
2018-10-12T22:13:36.457Z,100855.14
2018-10-12T22:16:07.358Z,100848.55
2018-10-12T22:18:38.649Z,100847.69
2018-10-12T22:21:09.348Z,100848.55
2018-10-12T22:23:40.040Z,100845.62
2018-10-12T22:26:10.914Z,100844.04
2018-10-12T22:28:41.797Z,100846.09
2018-10-12T22:31:12.701Z,100840.02
2018-10-12T22:33:43.418Z,100836.48
2018-10-12T22:36:14.130Z,100839.77
2018-10-12T22:38:44.860Z,100833.58
2018-10-12T22:41:15.584Z,100832.48
2018-10-12T22:43:46.392Z,100831.75
2018-10-12T22:46:17.232Z,100826.50
2018-10-12T22:48:48.029Z,100825.30
2018-10-12T22:51:18.757Z,100823.33
2018-10-12T22:53:49.591Z,100834.33
2018-10-12T22:56:20.695Z,100822.12
2018-10-12T22:58:51.420Z,100822.39
2018-10-12T23:01:22.213Z,100823.60
2018-10-12T23:03:52.999Z,100823.60
2018-10-12T23:06:23.838Z,100816.77
2018-10-12T23:08:54.576Z,100818.59
2018-10-12T23:11:25.309Z,100817.03
2018-10-12T23:13:56.062Z,100820.06
2018-10-12T23:16:26.887Z,100820.06
2018-10-12T23:18:57.844Z,100820.06
2018-10-12T23:21:28.743Z,100810.79
2018-10-12T23:23:59.631Z,100815.05
2018-10-12T23:26:30.432Z,100812.02
2018-10-12T23:29:07.781Z,100818.12
2018-10-12T23:31:38.554Z,100812.42
2018-10-12T23:34:09.995Z,100810.67
2018-10-12T23:36:40.648Z,100808.98
2018-10-12T23:39:11.378Z,100813.36
2018-10-12T23:41:42.137Z,100798.85
2018-10-12T23:44:12.786Z,100805.55
2018-10-12T23:46:43.444Z,100806.55
2018-10-12T23:49:14.056Z,100805.72
2018-10-12T23:51:44.731Z,100802.66
2018-10-12T23:54:15.385Z,100799.01
2018-10-12T23:56:46.063Z,100796.09
2018-10-12T23:59:16.734Z,100801.55
